Time;durP1;ratioP1;P1;durP2;ratioP2;P2;SDS_P1;SDS_P2;PMS_P1;PMS_P2;Temp;Humidity;BMP_temperature;BMP_pressure;BME280_temperature;BME280_humidity;BME280_pressure;Samples;Min_cycle;Max_cycle;Signal;HPM_P1;HPM_P2
2022/03/09 00:03:20;;;;;;;36.65;14.68;;;-0.70;99.90;;;;;;20826026;28;20076;-73
2022/03/09 00:13:21;;;;;;;31.80;13.45;;;-0.90;99.90;;;;;;20837108;28;20035;-73
2022/03/09 00:23:22;;;;;;;28.65;12.52;;;-0.90;99.90;;;;;;20837794;28;20056;-72
2022/03/09 00:33:23;;;;;;;22.60;10.07;;;-0.90;99.90;;;;;;20819432;28;20480;-73
2022/03/09 00:43:24;;;;;;;23.92;11.27;;;-1.30;99.90;;;;;;20836766;28;20033;-72
2022/03/09 00:53:25;;;;;;;34.08;13.40;;;-1.40;99.90;;;;;;20835409;28;20030;-72
2022/03/09 01:03:25;;;;;;;27.67;11.52;;;-1.20;99.90;;;;;;20834950;28;20029;-73
2022/03/09 01:13:26;;;;;;;31.95;13.23;;;-1.10;99.90;;;;;;20831376;28;20048;-73
2022/03/09 01:23:27;;;;;;;30.20;12.38;;;-0.90;99.90;;;;;;20832936;28;20518;-72
2022/03/09 01:33:28;;;;;;;39.60;14.45;;;-0.90;99.90;;;;;;20833401;28;20103;-73
2022/03/09 01:43:29;;;;;;;33.30;12.23;;;-1.00;99.90;;;;;;20814164;28;20037;-72
2022/03/09 01:53:30;;;;;;;31.15;13.57;;;-1.20;99.90;;;;;;20883590;22;20060;-78
2022/03/09 02:03:31;;;;;;;33.72;13.90;;;-1.30;99.90;;;;;;20845195;28;20029;-78
2022/03/09 02:13:37;;;;;;;34.80;13.57;;;-1.30;99.90;;;;;;20830765;28;20041;-77
2022/03/09 02:23:38;;;;;;;32.67;13.15;;;-1.30;99.90;;;;;;20840690;28;20048;-77
2022/03/09 02:33:42;;;;;;;29.60;12.35;;;-1.40;99.90;;;;;;20848270;28;20025;-78
2022/03/09 02:43:43;;;;;;;27.63;11.45;;;-1.40;99.90;;;;;;20851432;28;20045;-78
2022/03/09 02:53:44;;;;;;;33.63;12.63;;;-1.50;99.90;;;;;;20843605;28;20029;-78
2022/03/09 03:03:45;;;;;;;27.90;11.85;;;-1.60;99.90;;;;;;20823926;28;20034;-79
2022/03/09 03:13:48;;;;;;;28.65;13.02;;;-1.60;99.90;;;;;;20837821;28;20040;-78
2022/03/09 03:23:49;;;;;;;30.55;12.35;;;-1.70;99.90;;;;;;20840534;28;20551;-78
2022/03/09 03:33:50;;;;;;;28.77;11.65;;;-1.70;99.90;;;;;;20847322;28;20033;-79
2022/03/09 03:43:51;;;;;;;27.58;11.52;;;-1.80;99.90;;;;;;20930560;28;20052;-79
2022/03/09 03:53:52;;;;;;;29.48;11.52;;;-1.80;99.90;;;;;;20911285;28;20518;-77
2022/03/09 04:03:53;;;;;;;28.05;12.75;;;-1.90;99.90;;;;;;20886643;28;21028;-77
2022/03/09 04:13:53;;;;;;;26.00;11.88;;;-2.10;99.90;;;;;;20921151;28;20078;-76
2022/03/09 04:23:54;;;;;;;31.25;12.00;;;-2.00;99.90;;;;;;20910274;28;20033;-74
2022/03/09 04:33:55;;;;;;;32.17;12.55;;;-2.00;99.90;;;;;;20867307;28;20038;-75
2022/03/09 04:43:56;;;;;;;41.20;12.68;;;-2.10;99.90;;;;;;20917139;28;20430;-76
2022/03/09 04:53:57;;;;;;;35.88;13.32;;;-2.20;99.90;;;;;;20860416;28;20034;-76
2022/03/09 05:03:58;;;;;;;27.92;11.25;;;-2.20;99.90;;;;;;20868343;28;20033;-78
2022/03/09 05:13:59;;;;;;;28.23;11.10;;;-2.20;99.90;;;;;;20849466;28;20040;-78
2022/03/09 05:23:59;;;;;;;31.17;12.05;;;-2.40;99.90;;;;;;20839552;28;20036;-77
2022/03/09 05:34:01;;;;;;;32.03;10.90;;;-2.40;99.90;;;;;;20895442;28;20029;-78
2022/03/09 05:44:02;;;;;;;30.30;11.32;;;-2.50;99.90;;;;;;20895426;28;20041;-79
2022/03/09 05:54:03;;;;;;;28.75;11.80;;;-2.70;99.90;;;;;;20843127;28;20037;-78
2022/03/09 06:04:05;;;;;;;34.47;12.57;;;-2.50;99.90;;;;;;20812586;28;20048;-77
2022/03/09 06:14:05;;;;;;;30.63;12.63;;;-2.70;99.90;;;;;;20833385;28;20396;-78
2022/03/09 06:24:07;;;;;;;35.08;13.68;;;-2.50;99.90;;;;;;20816061;28;20041;-76
2022/03/09 06:34:07;;;;;;;30.98;11.43;;;-2.30;99.90;;;;;;20832340;28;20064;-77
2022/03/09 06:44:09;;;;;;;28.92;11.75;;;-2.10;99.90;;;;;;20795594;28;20467;-77
2022/03/09 06:54:09;;;;;;;21.60;10.07;;;-1.80;99.90;;;;;;20810941;28;20034;-75
2022/03/09 07:04:10;;;;;;;29.98;12.68;;;-1.50;99.90;;;;;;20811207;28;20061;-75
2022/03/09 07:14:12;;;;;;;30.02;12.48;;;-1.20;99.90;;;;;;20827622;28;20519;-75
2022/03/09 07:24:13;;;;;;;25.25;10.05;;;-0.60;99.90;;;;;;20828115;28;20033;-75
2022/03/09 07:34:14;;;;;;;24.00;11.25;;;-0.10;99.90;;;;;;20897684;28;20479;-74
2022/03/09 07:44:16;;;;;;;32.95;12.00;;;0.50;99.90;;;;;;20859022;28;20484;-76
2022/03/09 07:54:17;;;;;;;29.33;13.00;;;0.80;99.90;;;;;;20832373;28;20124;-78
2022/03/09 08:04:19;;;;;;;28.42;11.73;;;1.40;99.90;;;;;;20832052;28;20117;-78
2022/03/09 08:14:20;;;;;;;26.70;10.85;;;1.20;99.90;;;;;;20833239;28;20037;-79
2022/03/09 08:24:22;;;;;;;24.90;10.20;;;1.80;99.90;;;;;;20840187;28;20032;-77
2022/03/09 08:34:22;;;;;;;24.80;10.75;;;2.50;99.90;;;;;;20853490;28;20470;-78
2022/03/09 08:44:24;;;;;;;;;;;2.90;99.90;;;;;;20855215;28;20455;-78
2022/03/09 08:54:25;;;;;;;23.98;10.70;;;4.20;99.90;;;;;;20852680;28;19924;-78
2022/03/09 09:04:26;;;;;;;25.65;10.13;;;5.20;99.90;;;;;;20843887;28;20496;-77
2022/03/09 09:14:28;;;;;;;21.33;10.57;;;5.30;99.90;;;;;;20825375;28;20037;-78
2022/03/09 09:24:29;;;;;;;23.95;11.85;;;6.20;99.90;;;;;;20849887;28;20033;-78
2022/03/09 09:34:31;;;;;;;31.27;13.85;;;7.20;99.90;;;;;;20848472;28;20046;-79
2022/03/09 09:44:35;;;;;;;36.10;16.50;;;8.40;99.90;;;;;;20848401;28;20797;-79
2022/03/09 09:54:36;;;;;;;44.90;20.63;;;8.70;99.90;;;;;;20833017;28;20099;-77
2022/03/09 10:04:39;;;;;;;37.15;20.00;;;8.50;99.90;;;;;;20847850;28;20078;-79
2022/03/09 10:14:51;;;;;;;50.63;19.35;;;8.70;99.90;;;;;;20848497;28;20364;-79
2022/03/09 10:24:53;;;;;;;47.35;22.45;;;10.30;99.90;;;;;;20848452;28;20030;-78
2022/03/09 10:34:54;;;;;;;44.63;23.35;;;11.10;99.90;;;;;;20846008;28;20033;-79
2022/03/09 10:44:55;;;;;;;43.07;22.13;;;11.10;99.90;;;;;;20846762;28;20476;-79
2022/03/09 10:55:26;;;;;;;45.80;24.23;;;13.50;99.90;;;;;;20828307;28;20038;-78
2022/03/09 11:05:27;;;;;;;47.88;24.98;;;13.30;98.80;;;;;;20868858;28;20055;-77
2022/03/09 11:15:28;;;;;;;48.03;22.77;;;12.60;99.90;;;;;;20883812;28;20475;-78
2022/03/09 11:25:30;;;;;;;46.20;25.37;;;14.20;98.80;;;;;;20881115;28;20414;-74
2022/03/09 11:35:35;;;;;;;48.70;25.80;;;15.70;95.30;;;;;;20853666;28;20025;-77
2022/03/09 11:45:36;;;;;;;53.30;26.10;;;14.80;95.70;;;;;;20869449;28;20484;-74
2022/03/09 11:55:37;;;;;;;45.23;26.63;;;16.00;95.10;;;;;;20868879;28;20088;-77
2022/03/09 12:05:42;;;;;;;51.50;26.97;;;16.90;92.80;;;;;;20892864;28;20028;-78
2022/03/09 12:16:12;;;;;;;46.28;25.60;;;16.60;94.00;;;;;;20895068;28;20099;-78
2022/03/09 12:26:39;;;;;;;44.05;25.92;;;17.30;92.30;;;;;;20896390;28;20033;-78
2022/03/09 12:36:39;;;;;;;43.50;24.20;;;17.30;90.80;;;;;;20860916;28;20045;-78
2022/03/09 12:46:43;;;;;;;41.23;21.73;;;17.30;91.10;;;;;;20855795;28;20488;-78
2022/03/09 12:56:44;;;;;;;35.80;20.20;;;17.30;91.60;;;;;;20854306;28;20121;-77
2022/03/09 13:06:44;;;;;;;33.37;18.70;;;17.00;92.30;;;;;;20857077;28;20022;-79
2022/03/09 13:16:46;;;;;;;38.47;19.63;;;17.50;91.20;;;;;;20855480;28;20021;-78
2022/03/09 13:26:47;;;;;;;32.40;18.23;;;17.20;90.90;;;;;;20855671;28;20026;-79
2022/03/09 13:37:05;;;;;;;34.10;18.40;;;16.90;89.70;;;;;;20855139;28;20043;-79
2022/03/09 13:47:11;;;;;;;42.22;23.13;;;18.60;85.90;;;;;;20892824;22;20067;-75
2022/03/09 13:57:11;;;;;;;44.80;20.38;;;17.70;86.60;;;;;;20867322;28;20029;-75
2022/03/09 14:07:12;;;;;;;47.43;20.90;;;18.30;83.10;;;;;;20815539;28;20043;-75
2022/03/09 14:17:15;;;;;;;48.10;23.40;;;18.10;82.70;;;;;;20855583;28;20715;-75
2022/03/09 14:27:15;;;;;;;39.15;18.92;;;17.50;82.30;;;;;;20882148;28;20114;-75
2022/03/09 14:37:16;;;;;;;35.10;18.10;;;17.60;83.90;;;;;;20890159;28;20037;-75
2022/03/09 14:47:17;;;;;;;35.37;17.00;;;17.70;86.10;;;;;;20855927;28;20091;-74
2022/03/09 14:57:18;;;;;;;40.30;20.00;;;17.70;79.20;;;;;;20880498;28;20555;-75
2022/03/09 15:07:22;;;;;;;42.97;18.90;;;17.60;78.80;;;;;;20870987;28;20630;-75
2022/03/09 15:17:22;;;;;;;33.05;16.90;;;17.50;76.90;;;;;;20888160;28;20037;-75
2022/03/09 15:27:23;;;;;;;38.53;17.83;;;17.40;76.80;;;;;;20887275;28;20036;-75
2022/03/09 15:37:24;;;;;;;40.07;17.70;;;17.30;78.10;;;;;;20886788;28;20060;-74
2022/03/09 15:47:25;;;;;;;41.97;18.37;;;16.10;78.00;;;;;;20921387;28;20055;-74
2022/03/09 15:57:26;;;;;;;40.67;18.67;;;15.80;78.70;;;;;;20922696;28;20029;-74
2022/03/09 16:07:27;;;;;;;38.37;18.77;;;15.20;80.00;;;;;;20904167;28;20068;-74
2022/03/09 16:17:28;;;;;;;40.33;18.73;;;14.90;81.70;;;;;;20921247;28;20072;-74
2022/03/09 16:27:30;;;;;;;37.87;18.40;;;14.10;82.90;;;;;;20920449;28;20029;-74
2022/03/09 16:37:30;;;;;;;48.38;21.13;;;13.70;86.30;;;;;;20919409;28;20188;-74
2022/03/09 16:47:31;;;;;;;36.17;17.33;;;12.80;90.40;;;;;;20900569;28;20570;-74
2022/03/09 16:57:33;;;;;;;50.13;20.37;;;12.40;93.40;;;;;;20917893;28;20095;-73
2022/03/09 17:07:34;;;;;;;41.63;18.70;;;11.40;93.90;;;;;;20912080;28;20079;-73
2022/03/09 17:17:35;;;;;;;49.95;21.20;;;10.90;95.60;;;;;;20883830;28;20086;-74
2022/03/09 17:27:36;;;;;;;47.00;20.67;;;9.50;96.60;;;;;;20872654;28;20028;-74
2022/03/09 17:37:38;;;;;;;53.20;21.17;;;9.60;96.90;;;;;;20871797;28;20040;-73
2022/03/09 17:47:39;;;;;;;53.22;21.70;;;8.90;98.30;;;;;;20865760;28;20032;-73
2022/03/09 17:57:40;;;;;;;46.40;21.63;;;8.10;99.90;;;;;;20881314;28;20031;-73
2022/03/09 18:07:41;;;;;;;43.55;19.27;;;7.50;99.90;;;;;;20861719;28;20558;-74
2022/03/09 18:17:44;;;;;;;44.97;18.50;;;6.40;99.90;;;;;;20848021;28;20055;-74
2022/03/09 18:27:47;;;;;;;44.67;18.67;;;6.30;99.90;;;;;;20853372;28;20033;-74
2022/03/09 18:37:48;;;;;;;48.13;19.52;;;5.70;99.90;;;;;;20858215;28;20044;-74
2022/03/09 18:47:49;;;;;;;52.90;19.27;;;5.50;99.90;;;;;;20871861;28;20036;-74
2022/03/09 18:57:50;;;;;;;47.17;18.73;;;5.60;99.90;;;;;;20888418;28;20299;-74
2022/03/09 19:07:50;;;;;;;50.03;19.80;;;5.80;99.90;;;;;;20870544;28;20040;-74
2022/03/09 19:17:52;;;;;;;45.55;18.52;;;4.80;99.90;;;;;;20868939;28;20065;-73
2022/03/09 19:27:53;;;;;;;;;;;5.00;99.90;;;;;;20887377;28;20111;-74
2022/03/09 19:37:53;;;;;;;48.90;18.17;;;4.20;99.90;;;;;;20812969;28;19916;-75
2022/03/09 19:47:54;;;;;;;46.63;19.45;;;4.00;99.90;;;;;;20909001;22;20053;-79
2022/03/09 19:57:57;;;;;;;47.95;18.67;;;3.50;99.90;;;;;;20905866;28;20033;-79
2022/03/09 20:07:58;;;;;;;49.53;18.10;;;3.70;99.90;;;;;;20836919;28;20033;-81
2022/03/09 20:17:58;;;;;;;;;;;3.90;99.90;;;;;;20801861;28;20044;-80
2022/03/09 20:28:00;;;;;;;46.72;18.55;;;4.10;99.90;;;;;;20849876;28;20347;-79
2022/03/09 20:38:01;;;;;;;43.20;16.60;;;3.70;99.90;;;;;;20838292;28;20037;-79
2022/03/09 20:48:02;;;;;;;;;;;3.10;99.90;;;;;;20831834;28;20053;-78
2022/03/09 20:58:03;;;;;;;46.83;16.95;;;3.10;99.90;;;;;;20840798;28;20299;-78
2022/03/09 21:08:04;;;;;;;42.80;16.27;;;3.20;99.90;;;;;;20795763;28;20041;-79
2022/03/09 21:18:05;;;;;;;42.40;16.52;;;3.50;99.90;;;;;;20810577;28;20033;-79
2022/03/09 21:28:06;;;;;;;35.45;15.07;;;3.70;99.90;;;;;;20807976;28;20064;-78
2022/03/09 21:38:07;;;;;;;45.40;17.30;;;4.00;99.90;;;;;;20754752;28;20034;-81
2022/03/09 21:48:08;;;;;;;38.22;15.80;;;4.00;99.90;;;;;;20739575;28;20069;-80
2022/03/09 21:58:08;;;;;;;;;;;3.90;99.90;;;;;;20852455;28;20029;-78
2022/03/09 22:08:09;;;;;;;40.93;15.53;;;3.90;99.90;;;;;;20746552;28;19921;-80
2022/03/09 22:18:10;;;;;;;37.58;15.32;;;3.70;99.90;;;;;;20753021;28;20307;-79
2022/03/09 22:28:11;;;;;;;;;;;3.70;99.90;;;;;;20803824;28;20041;-80
2022/03/09 22:38:12;;;;;;;38.47;15.48;;;3.50;99.90;;;;;;20817716;28;19917;-81
2022/03/09 22:48:12;;;;;;;;;;;3.30;99.90;;;;;;20804199;28;20041;-81
2022/03/09 22:58:13;;;;;;;37.30;14.33;;;3.30;99.90;;;;;;20820204;28;19920;-78
2022/03/09 23:08:15;;;;;;;;;;;3.10;99.90;;;;;;20821276;28;20363;-79
2022/03/09 23:18:16;;;;;;;38.30;15.67;;;3.10;99.90;;;;;;20784267;28;19999;-77
2022/03/09 23:28:17;;;;;;;;;;;3.00;99.90;;;;;;20793236;28;20048;-79
2022/03/09 23:38:19;;;;;;;41.08;14.90;;;2.60;99.90;;;;;;20761152;28;19945;-79
2022/03/09 23:48:20;;;;;;;36.42;15.18;;;2.50;99.90;;;;;;20764243;28;20046;-80
2022/03/09 23:58:21;;;;;;;;;;;2.30;99.90;;;;;;20728490;28;20519;-79
